Time;durP1;ratioP1;P1;durP2;ratioP2;P2;SDS_P1;SDS_P2;PMS_P1;PMS_P2;Temp;Humidity;BMP_temperature;BMP_pressure;BME280_temperature;BME280_humidity;BME280_pressure;Samples;Min_cycle;Max_cycle;Signal;HPM_P1;HPM_P2
2023/02/05 00:01:27;;;;;;;;;12.00;9.33;25.20;36.50;;;;;;110323;1252;44959;-65
2023/02/05 00:03:54;;;;;;;;;13.00;8.67;25.20;36.40;;;;;;110396;1249;54411;-67
2023/02/05 00:06:21;;;;;;;;;9.50;8.00;25.10;36.50;;;;;;110337;1249;55052;-67
2023/02/05 00:08:48;;;;;;;;;11.00;9.50;25.10;36.70;;;;;;110638;1252;49368;-66
2023/02/05 00:11:16;;;;;;;;;13.00;11.67;25.00;36.80;;;;;;110459;1249;49121;-66
2023/02/05 00:13:43;;;;;;;;;10.00;8.00;25.10;37.20;;;;;;110320;1251;45260;-67
2023/02/05 00:16:13;;;;;;;;;11.00;10.00;25.10;36.90;;;;;;110496;1249;53972;-66
2023/02/05 00:18:40;;;;;;;;;11.00;9.00;25.10;37.20;;;;;;110784;1252;53679;-67
2023/02/05 00:21:08;;;;;;;;;10.00;8.00;25.20;37.30;;;;;;110496;1252;50353;-67
2023/02/05 00:23:35;;;;;;;;;10.00;8.00;25.20;37.50;;;;;;110351;1252;49226;-67
2023/02/05 00:26:03;;;;;;;;;11.00;10.00;25.30;37.30;;;;;;110553;1249;44751;-67
2023/02/05 00:28:32;;;;;;;;;10.33;9.00;25.30;37.50;;;;;;110599;1248;53967;-67
2023/02/05 00:30:59;;;;;;;;;10.00;9.00;25.30;37.40;;;;;;110594;1252;53348;-67
2023/02/05 00:33:26;;;;;;;;;10.00;9.00;25.40;37.40;;;;;;110481;1247;49816;-66
2023/02/05 00:35:53;;;;;;;;;12.00;9.00;25.50;37.60;;;;;;110260;1248;49019;-65
2023/02/05 00:38:20;;;;;;;;;11.00;10.00;25.50;37.40;;;;;;110291;1248;45593;-66
2023/02/05 00:40:47;;;;;;;;;12.50;10.50;25.50;37.40;;;;;;110287;1248;54491;-66
2023/02/05 00:43:14;;;;;;;;;13.00;11.00;25.60;37.50;;;;;;110279;1252;54195;-65
2023/02/05 00:45:41;;;;;;;;;10.00;9.00;25.70;37.80;;;;;;110369;1252;51527;-66
2023/02/05 00:48:08;;;;;;;;;10.33;8.67;25.70;37.40;;;;;;110539;1252;49087;-65
2023/02/05 00:50:35;;;;;;;;;9.00;8.00;25.80;37.50;;;;;;110406;1252;44725;-66
2023/02/05 00:53:02;;;;;;;;;13.00;10.00;25.90;37.50;;;;;;110476;1252;53951;-66
2023/02/05 00:55:29;;;;;;;;;10.75;9.50;25.90;37.70;;;;;;110404;1248;54916;-67
2023/02/05 00:57:56;;;;;;;;;10.00;9.00;26.00;37.50;;;;;;110510;1252;50347;-65
2023/02/05 01:00:23;;;;;;;;;10.00;9.00;26.00;37.40;;;;;;110549;1252;49622;-66
2023/02/05 01:02:50;;;;;;;;;12.00;10.00;26.10;37.40;;;;;;110371;1252;46129;-65
2023/02/05 01:05:17;;;;;;;;;11.00;9.00;26.10;37.30;;;;;;110419;1252;55271;-65
2023/02/05 01:07:44;;;;;;;;;11.00;8.00;26.20;37.30;;;;;;110429;1252;55655;-65
2023/02/05 01:10:11;;;;;;;;;11.00;9.50;26.30;37.40;;;;;;110406;1252;49672;-66
2023/02/05 01:12:38;;;;;;;;;9.67;8.67;26.30;37.30;;;;;;110435;1247;49572;-66
2023/02/05 01:15:06;;;;;;;;;11.00;10.00;26.30;37.20;;;;;;110454;1249;45062;-67
2023/02/05 01:17:33;;;;;;;;;12.00;10.00;26.30;37.20;;;;;;110346;1253;54177;-67
2023/02/05 01:20:00;;;;;;;;;12.00;9.00;26.40;37.20;;;;;;110511;1254;54679;-66
2023/02/05 01:22:27;;;;;;;;;12.00;10.00;26.40;37.20;;;;;;110371;1249;49779;-68
2023/02/05 01:24:54;;;;;;;;;11.00;8.00;26.40;37.10;;;;;;110419;1248;49178;-68
2023/02/05 01:27:21;;;;;;;;;11.00;10.00;26.40;37.10;;;;;;110429;1248;44419;-67
2023/02/05 01:29:48;;;;;;;;;10.00;9.00;26.40;37.10;;;;;;110657;1252;54651;-66
2023/02/05 01:32:15;;;;;;;;;9.67;8.67;26.40;37.20;;;;;;110500;1252;54068;-70
2023/02/05 01:34:42;;;;;;;;;10.00;8.00;26.40;37.00;;;;;;110339;1249;50139;-66
2023/02/05 01:37:09;;;;;;;;;9.33;8.00;26.40;36.90;;;;;;110473;1247;48969;-66
2023/02/05 01:39:37;;;;;;;;;11.00;9.67;26.40;36.90;;;;;;110667;1247;45667;-66
2023/02/05 01:42:20;;;;;;;;;12.00;10.00;26.40;36.90;;;;;;110442;1247;54322;-66
2023/02/05 01:45:21;;;;;;;;;11.67;9.67;26.40;37.10;;;;;;110322;1248;53570;-65
2023/02/05 01:47:50;;;;;;;;;10.67;9.00;26.30;36.80;;;;;;110380;1249;49460;-65
2023/02/05 01:50:24;;;;;;;;;9.00;7.00;26.30;36.70;;;;;;110518;1252;50416;-65
2023/02/05 01:52:52;;;;;;;;;9.67;8.67;26.20;36.60;;;;;;110285;1252;44866;-65
2023/02/05 01:55:19;;;;;;;;;13.00;10.00;26.20;36.50;;;;;;110278;1252;54221;-65
2023/02/05 01:57:47;;;;;;;;;9.00;8.00;26.20;36.50;;;;;;110197;1252;53183;-66
2023/02/05 02:00:14;;;;;;;;;11.00;9.00;26.10;36.40;;;;;;110440;1248;50683;-65
2023/02/05 02:02:41;;;;;;;;;10.50;8.00;26.00;36.30;;;;;;110232;1249;49309;-66
2023/02/05 02:05:10;;;;;;;;;10.33;8.00;26.00;36.20;;;;;;110340;1252;44660;-66
2023/02/05 02:07:38;;;;;;;;;10.50;9.00;25.90;36.20;;;;;;110333;1252;54814;-67
2023/02/05 02:10:06;;;;;;;;;10.50;9.00;25.90;36.30;;;;;;110485;1250;54649;-65
2023/02/05 02:12:36;;;;;;;;;10.00;8.50;25.90;36.00;;;;;;110175;1252;49622;-66
2023/02/05 02:15:07;;;;;;;;;10.00;9.00;25.80;35.80;;;;;;110338;1252;48785;-66
2023/02/05 02:17:39;;;;;;;;;9.00;8.00;25.70;35.90;;;;;;110215;1252;44532;-67
2023/02/05 02:20:19;;;;;;;;;10.00;8.00;25.70;35.60;;;;;;110553;1250;56131;-67
2023/02/05 02:23:31;;;;;;;;;10.00;9.00;25.60;35.50;;;;;;110322;1252;54497;-66
2023/02/05 02:26:28;;;;;;;;;9.00;8.00;25.60;35.40;;;;;;110255;1252;50868;-67
2023/02/05 02:28:59;;;;;;;;;12.33;9.33;25.50;35.30;;;;;;110438;1252;49507;-65
2023/02/05 02:31:41;;;;;;;;;9.00;8.00;25.50;35.20;;;;;;110308;1252;45454;-67
2023/02/05 02:34:15;;;;;;;;;11.00;9.50;25.50;35.10;;;;;;110283;1251;55264;-67
2023/02/05 02:36:57;;;;;;;;;11.00;9.00;25.40;35.60;;;;;;110192;1249;53362;-66
2023/02/05 02:39:31;;;;;;;;;12.00;10.00;25.30;35.10;;;;;;110470;1254;49807;-66
2023/02/05 02:42:00;;;;;;;;;9.00;8.00;25.20;35.40;;;;;;110323;1252;50128;-68
2023/02/05 02:44:34;;;;;;;;;10.33;9.00;25.20;35.40;;;;;;110461;1252;45431;-66
2023/02/05 02:47:06;;;;;;;;;10.00;8.00;25.30;35.50;;;;;;110397;1252;54512;-66
2023/02/05 02:49:38;;;;;;;;;10.00;9.00;25.20;36.10;;;;;;110618;1249;54581;-66
2023/02/05 02:52:07;;;;;;;;;9.67;7.67;25.30;35.70;;;;;;110331;1249;49941;-66
2023/02/05 02:54:36;;;;;;;;;9.50;7.50;25.30;35.80;;;;;;110254;1249;48636;-67
2023/02/05 02:57:05;;;;;;;;;11.00;8.67;25.40;36.20;;;;;;110358;1253;44774;-67
2023/02/05 02:59:35;;;;;;;;;9.00;8.00;25.40;35.90;;;;;;110711;1249;53917;-66
2023/02/05 03:02:04;;;;;;;;;10.00;8.00;25.40;36.00;;;;;;110439;1249;53782;-66
2023/02/05 03:04:37;;;;;;;;;10.00;8.67;25.50;36.00;;;;;;110395;1248;49590;-66
2023/02/05 03:07:11;;;;;;;;;9.00;7.00;25.50;36.00;;;;;;110271;1253;49818;-65
2023/02/05 03:10:01;;;;;;;;;11.00;10.00;25.50;36.50;;;;;;110544;1249;45644;-67
2023/02/05 03:12:28;;;;;;;;;9.00;7.00;25.60;36.10;;;;;;110327;1248;53911;-70
2023/02/05 03:14:55;;;;;;;;;10.00;8.67;25.70;36.30;;;;;;110309;1253;53946;-70
2023/02/05 03:17:23;;;;;;;;;10.00;8.00;25.70;36.10;;;;;;110425;1249;48921;-71
2023/02/05 03:20:16;;;;;;;;;11.00;10.00;25.80;36.30;;;;;;110712;1254;49492;-68
2023/02/05 03:22:43;;;;;;;;;9.00;8.00;25.80;36.30;;;;;;110384;1253;45358;-68
2023/02/05 03:25:10;;;;;;;;;10.00;9.00;25.90;36.10;;;;;;110467;1252;54825;-68
2023/02/05 03:27:37;;;;;;;;;9.00;8.00;25.90;36.10;;;;;;110359;1251;54009;-71
2023/02/05 03:30:07;;;;;;;;;10.00;8.00;26.00;36.10;;;;;;110594;1253;49442;-68
2023/02/05 03:32:39;;;;;;;;;9.00;8.00;26.00;36.30;;;;;;110450;1252;49190;-69
2023/02/05 03:35:19;;;;;;;;;10.00;8.67;26.10;36.30;;;;;;110416;1249;44496;-68
2023/02/05 03:38:06;;;;;;;;;11.50;9.00;26.20;36.10;;;;;;110539;1249;55203;-66
2023/02/05 03:40:48;;;;;;;;;9.00;7.33;26.20;36.10;;;;;;110452;1249;53917;-66
2023/02/05 03:43:29;;;;;;;;;10.00;8.00;26.30;36.30;;;;;;110325;1251;50009;-65
2023/02/05 03:46:05;;;;;;;;;10.00;9.00;26.30;36.00;;;;;;110319;1252;50483;-65
2023/02/05 03:48:42;;;;;;;;;11.75;9.00;26.40;36.00;;;;;;110647;1248;45504;-69
2023/02/05 03:51:21;;;;;;;;;9.75;7.75;26.40;36.00;;;;;;110056;1248;633947;-67
2023/02/05 03:54:08;;;;;;;;;11.00;9.00;26.40;36.00;;;;;;110529;1250;53489;-66
2023/02/05 03:56:52;;;;;;;;;8.00;7.00;26.40;35.90;;;;;;110511;1249;49305;-66
2023/02/05 03:59:19;;;;;;;;;10.67;9.00;26.40;35.90;;;;;;110672;1254;48889;-66
2023/02/05 04:01:46;;;;;;;;;8.00;7.00;26.40;35.90;;;;;;110317;1252;44478;-67
2023/02/05 04:04:14;;;;;;;;;11.00;10.00;26.40;35.90;;;;;;110458;1249;54891;-67
2023/02/05 04:06:41;;;;;;;;;10.67;9.67;26.40;35.80;;;;;;110470;1249;53242;-66
2023/02/05 04:09:09;;;;;;;;;10.00;8.50;26.30;35.80;;;;;;110718;1253;49522;-66
2023/02/05 04:11:37;;;;;;;;;9.00;8.00;26.30;36.00;;;;;;110352;1249;49503;-66
2023/02/05 04:14:04;;;;;;;;;10.00;8.00;26.30;36.00;;;;;;110517;1248;45112;-65
2023/02/05 04:16:31;;;;;;;;;9.33;7.67;26.30;35.80;;;;;;110525;1252;54743;-67
2023/02/05 04:18:58;;;;;;;;;10.50;9.50;26.20;35.90;;;;;;110774;1252;53620;-65
2023/02/05 04:21:25;;;;;;;;;9.00;8.00;26.20;35.70;;;;;;110545;1252;50269;-66
2023/02/05 04:23:52;;;;;;;;;10.00;9.00;26.10;35.50;;;;;;110582;1249;49509;-65
2023/02/05 04:26:18;;;;;;;;;10.67;8.00;26.10;35.40;;;;;;110537;1248;44962;-64
2023/02/05 04:28:45;;;;;;;;;10.00;8.50;26.00;35.50;;;;;;110468;1252;54541;-65
2023/02/05 04:31:13;;;;;;;;;9.00;8.00;26.00;35.30;;;;;;110460;1252;53403;-66
2023/02/05 04:33:40;;;;;;;;;8.00;7.00;26.00;35.30;;;;;;110415;1248;49674;-66
2023/02/05 04:36:07;;;;;;;;;10.00;8.00;25.90;35.20;;;;;;110427;1252;48499;-66
2023/02/05 04:38:34;;;;;;;;;10.00;9.00;25.80;35.30;;;;;;110746;1252;45172;-67
2023/02/05 04:41:01;;;;;;;;;9.50;8.00;25.70;35.00;;;;;;110485;1248;55844;-66
2023/02/05 04:43:28;;;;;;;;;9.00;7.00;25.70;34.90;;;;;;110428;1248;53866;-67
2023/02/05 04:45:55;;;;;;;;;10.67;9.33;25.60;34.70;;;;;;110501;1252;49477;-65
2023/02/05 04:48:22;;;;;;;;;9.00;8.00;25.60;34.60;;;;;;110421;1252;50588;-64
2023/02/05 04:50:49;;;;;;;;;9.33;8.00;25.50;34.50;;;;;;110411;1252;44925;-65
2023/02/05 04:53:16;;;;;;;;;9.00;7.00;25.50;34.50;;;;;;110407;1252;55059;-65
2023/02/05 04:55:43;;;;;;;;;10.50;7.50;25.40;34.40;;;;;;110210;1252;53846;-66
2023/02/05 04:58:10;;;;;;;;;9.00;8.00;25.30;34.40;;;;;;110375;1249;49834;-64
2023/02/05 05:00:36;;;;;;;;;10.00;9.00;25.20;34.80;;;;;;110247;1248;49071;-65
2023/02/05 05:03:03;;;;;;;;;8.00;7.00;25.20;34.60;;;;;;110505;1249;45378;-65
2023/02/05 05:05:30;;;;;;;;;9.00;8.00;25.20;34.40;;;;;;110560;1248;55676;-65
2023/02/05 05:07:58;;;;;;;;;10.00;8.00;25.10;34.40;;;;;;110511;1248;54761;-65
2023/02/05 05:10:25;;;;;;;;;8.00;7.00;25.10;34.60;;;;;;110390;1253;49036;-64
2023/02/05 05:12:52;;;;;;;;;9.33;8.00;25.00;34.70;;;;;;110300;1252;49427;-62
2023/02/05 05:15:19;;;;;;;;;9.00;7.00;25.10;34.90;;;;;;110326;1249;44751;-62
2023/02/05 05:17:46;;;;;;;;;9.00;8.00;25.10;35.10;;;;;;110405;1252;55684;-64
2023/02/05 05:20:13;;;;;;;;;9.67;7.67;25.10;35.40;;;;;;110163;1249;53502;-63
2023/02/05 05:22:40;;;;;;;;;9.00;7.00;25.10;35.00;;;;;;110441;1248;49198;-63
2023/02/05 05:25:07;;;;;;;;;9.00;7.50;25.10;35.60;;;;;;110376;1252;49432;-63
2023/02/05 05:27:34;;;;;;;;;17.00;12.00;25.10;35.50;;;;;;110203;1248;45250;-64
2023/02/05 05:30:01;;;;;;;;;10.00;8.00;25.10;36.10;;;;;;110327;1248;54037;-64
2023/02/05 05:32:28;;;;;;;;;10.00;9.00;25.10;35.70;;;;;;110410;1248;54126;-62
2023/02/05 05:34:56;;;;;;;;;10.00;8.00;25.10;35.90;;;;;;110272;1248;49864;-63
2023/02/05 05:37:23;;;;;;;;;10.00;9.00;25.10;35.90;;;;;;110385;1248;50123;-62
2023/02/05 05:45:22;;;;;;;;;10.00;8.33;25.10;36.00;;;;;;110290;1249;54198;-64
2023/02/05 05:47:49;;;;;;;;;9.50;7.50;25.00;35.60;;;;;;110361;1252;49855;-64
2023/02/05 05:50:16;;;;;;;;;10.00;8.00;25.00;35.80;;;;;;110469;1252;48998;-63
2023/02/05 05:52:43;;;;;;;;;10.67;9.00;25.00;35.50;;;;;;110198;1252;44355;-62
2023/02/05 05:55:10;;;;;;;;;11.00;9.00;24.90;35.30;;;;;;110156;1247;54496;-63
2023/02/05 05:57:37;;;;;;;;;11.00;9.00;24.90;35.70;;;;;;110282;1248;53658;-64
2023/02/05 06:00:04;;;;;;;;;10.00;9.00;24.90;35.50;;;;;;110298;1252;50886;-63
2023/02/05 06:02:31;;;;;;;;;12.50;10.00;24.90;35.60;;;;;;110328;1248;50425;-63
2023/02/05 06:05:00;;;;;;;;;16.67;13.00;24.90;35.80;;;;;;110170;1249;44684;-63
2023/02/05 06:07:27;;;;;;;;;13.67;11.00;24.90;35.90;;;;;;110155;1249;54325;-62
2023/02/05 06:09:54;;;;;;;;;13.00;10.00;24.80;36.00;;;;;;110051;1249;53618;-61
2023/02/05 06:12:21;;;;;;;;;13.00;9.00;24.80;36.20;;;;;;110223;1248;49503;-61
2023/02/05 06:14:48;;;;;;;;;11.00;10.00;24.80;36.00;;;;;;110199;1252;48850;-61
2023/02/05 06:17:15;;;;;;;;;14.67;10.00;24.70;36.10;;;;;;110234;1252;44595;-63
2023/02/05 06:19:42;;;;;;;;;14.00;11.00;24.60;36.20;;;;;;110022;1249;54469;-62
2023/02/05 06:22:09;;;;;;;;;13.00;9.67;24.60;36.50;;;;;;110269;1252;54257;-63
2023/02/05 06:24:36;;;;;;;;;15.00;12.67;24.60;36.70;;;;;;110442;1252;49928;-64
2023/02/05 06:27:03;;;;;;;;;13.00;10.50;24.60;36.50;;;;;;110554;1248;48981;-63
2023/02/05 06:29:29;;;;;;;;;10.00;8.00;24.50;36.80;;;;;;110152;1248;46024;-63
2023/02/05 06:31:56;;;;;;;;;11.00;10.00;24.50;36.60;;;;;;110408;1252;56133;-65
2023/02/05 06:34:23;;;;;;;;;14.50;10.00;24.40;36.90;;;;;;110555;1249;54245;-64
2023/02/05 06:36:50;;;;;;;;;13.00;11.33;24.40;37.20;;;;;;110358;1252;49012;-63
2023/02/05 06:39:17;;;;;;;;;11.00;9.67;24.30;37.00;;;;;;110751;1248;49544;-63
2023/02/05 06:41:44;;;;;;;;;14.00;12.50;24.30;37.50;;;;;;110328;1252;45008;-63
2023/02/05 06:44:11;;;;;;;;;9.00;8.00;24.30;37.20;;;;;;110242;1252;55044;-62
2023/02/05 06:46:39;;;;;;;;;9.33;8.00;24.20;37.20;;;;;;110373;1248;53319;-66
2023/02/05 06:49:06;;;;;;;;;12.00;11.00;24.20;37.20;;;;;;110789;1251;50238;-66
2023/02/05 06:51:32;;;;;;;;;11.00;10.00;24.10;37.60;;;;;;110519;1249;48790;-65
2023/02/05 06:54:00;;;;;;;;;17.50;13.00;24.10;38.10;;;;;;110394;1252;45392;-65
2023/02/05 06:56:27;;;;;;;;;11.50;10.00;24.10;38.80;;;;;;110520;1248;54394;-67
2023/02/05 06:58:53;;;;;;;;;11.00;8.00;24.00;38.60;;;;;;110770;1252;53298;-64
2023/02/05 07:01:20;;;;;;;;;10.00;9.00;23.90;38.40;;;;;;110526;1252;50272;-66
2023/02/05 07:03:48;;;;;;;;;11.00;10.00;23.90;38.30;;;;;;110481;1252;49036;-65
2023/02/05 07:06:15;;;;;;;;;11.50;9.50;23.90;38.20;;;;;;110285;1249;45137;-65
2023/02/05 07:08:42;;;;;;;;;16.00;13.00;24.00;38.10;;;;;;110615;1252;55602;-65
2023/02/05 07:11:09;;;;;;;;;17.33;12.67;24.00;38.00;;;;;;110391;1250;53080;-65
2023/02/05 07:13:35;;;;;;;;;14.33;12.00;24.10;38.10;;;;;;110422;1252;49574;-66
2023/02/05 07:16:03;;;;;;;;;11.33;10.00;24.20;37.90;;;;;;110434;1249;49746;-68
2023/02/05 07:18:32;;;;;;;;;10.00;9.00;24.20;37.70;;;;;;110686;1252;45952;-66
2023/02/05 07:20:59;;;;;;;;;12.00;10.33;24.30;37.60;;;;;;110331;1253;54509;-66
2023/02/05 07:23:26;;;;;;;;;14.00;12.00;24.40;37.60;;;;;;110479;1249;53977;-63
2023/02/05 07:25:53;;;;;;;;;11.00;10.00;24.50;37.70;;;;;;110392;1252;50269;-64
2023/02/05 07:28:20;;;;;;;;;16.00;10.75;24.60;37.50;;;;;;110764;1252;49096;-65
2023/02/05 07:30:48;;;;;;;;;14.00;10.00;24.60;37.40;;;;;;110474;1248;44536;-64
2023/02/05 07:33:15;;;;;;;;;12.33;9.00;24.70;37.60;;;;;;110370;1252;55133;-65
2023/02/05 07:35:42;;;;;;;;;14.50;10.00;24.70;37.50;;;;;;110266;1252;53865;-67
2023/02/05 07:38:09;;;;;;;;;13.00;10.00;24.80;37.80;;;;;;110619;1252;50107;-67
2023/02/05 07:40:36;;;;;;;;;12.00;10.00;24.80;37.90;;;;;;110347;1249;49901;-64
2023/02/05 07:43:03;;;;;;;;;13.33;10.00;24.90;37.80;;;;;;110322;1252;45125;-63
2023/02/05 07:45:30;;;;;;;;;14.00;9.00;24.90;38.10;;;;;;110273;1252;54368;-65
2023/02/05 07:47:57;;;;;;;;;15.00;10.50;25.00;38.20;;;;;;110204;1252;53631;-64
2023/02/05 07:50:24;;;;;;;;;12.00;10.00;25.10;38.20;;;;;;110124;1251;51096;-65
2023/02/05 07:52:51;;;;;;;;;12.00;10.00;25.10;38.00;;;;;;110248;1252;49252;-65
2023/02/05 07:55:18;;;;;;;;;11.00;9.67;25.20;38.20;;;;;;110232;1252;45099;-64
2023/02/05 07:57:45;;;;;;;;;17.67;16.00;25.20;38.10;;;;;;110304;1252;54684;-65
2023/02/05 08:00:13;;;;;;;;;19.00;14.00;25.30;38.40;;;;;;110027;1248;54506;-66
2023/02/05 08:02:40;;;;;;;;;17.75;15.25;25.30;38.40;;;;;;110490;1248;49085;-63
2023/02/05 08:05:07;;;;;;;;;20.00;14.50;25.40;38.40;;;;;;110427;1249;49887;-65
2023/02/05 08:07:36;;;;;;;;;17.00;16.00;25.50;38.50;;;;;;110428;1249;45069;-65
2023/02/05 08:10:04;;;;;;;;;18.00;14.00;25.50;38.30;;;;;;110597;1249;55214;-65
2023/02/05 08:12:30;;;;;;;;;19.00;15.00;25.60;38.10;;;;;;110221;1252;53671;-64
2023/02/05 08:14:57;;;;;;;;;16.00;13.75;25.70;38.00;;;;;;110224;1251;50429;-64
2023/02/05 08:17:24;;;;;;;;;17.50;14.00;25.80;37.90;;;;;;110210;1252;48808;-64
2023/02/05 08:19:51;;;;;;;;;13.00;11.00;25.80;38.10;;;;;;110359;1249;45133;-64
2023/02/05 08:22:18;;;;;;;;;16.25;13.75;25.90;38.10;;;;;;110314;1252;54081;-64
2023/02/05 08:24:45;;;;;;;;;16.00;13.00;25.90;37.80;;;;;;110372;1252;54598;-65
2023/02/05 08:27:12;;;;;;;;;17.00;14.00;26.00;37.80;;;;;;110346;1250;49606;-64
2023/02/05 08:29:39;;;;;;;;;16.50;15.50;26.00;37.60;;;;;;110548;1250;49284;-65
2023/02/05 08:32:06;;;;;;;;;14.00;12.00;26.10;38.10;;;;;;110307;1252;44606;-64
2023/02/05 08:34:33;;;;;;;;;14.00;11.00;26.10;37.40;;;;;;110275;1252;55575;-64
2023/02/05 08:37:00;;;;;;;;;14.50;13.00;26.10;37.40;;;;;;110298;1251;53319;-64
2023/02/05 08:39:27;;;;;;;;;16.75;12.75;26.20;37.40;;;;;;110677;1249;48999;-65
2023/02/05 08:41:54;;;;;;;;;18.67;15.00;26.20;37.40;;;;;;110350;1252;49180;-64
2023/02/05 08:44:21;;;;;;;;;13.67;12.33;26.20;37.40;;;;;;110342;1252;45311;-64
2023/02/05 08:46:48;;;;;;;;;13.50;11.50;26.20;37.40;;;;;;110306;1252;54877;-65
2023/02/05 08:49:15;;;;;;;;;14.00;12.50;26.20;37.40;;;;;;110596;1252;53442;-65
2023/02/05 08:51:43;;;;;;;;;12.50;9.50;26.10;37.30;;;;;;110282;1254;49597;-64
2023/02/05 08:54:11;;;;;;;;;13.00;11.67;26.20;36.90;;;;;;110328;1252;49712;-64
2023/02/05 08:56:39;;;;;;;;;14.00;11.50;26.10;37.70;;;;;;110255;1252;44820;-65
2023/02/05 08:59:07;;;;;;;;;13.00;11.00;26.10;37.20;;;;;;110542;1249;55359;-65
2023/02/05 09:01:36;;;;;;;;;15.00;12.00;26.10;37.40;;;;;;110290;1249;54023;-64
2023/02/05 09:04:03;;;;;;;;;15.00;12.00;26.00;37.10;;;;;;110302;1248;50013;-64
2023/02/05 09:06:30;;;;;;;;;16.50;14.00;26.00;37.00;;;;;;110259;1248;49341;-64
2023/02/05 09:08:57;;;;;;;;;15.50;13.00;26.00;37.00;;;;;;110383;1250;44526;-64
2023/02/05 09:11:29;;;;;;;;;15.00;13.00;25.90;37.00;;;;;;110349;1248;54733;-64
2023/02/05 09:13:57;;;;;;;;;15.00;12.00;25.90;37.00;;;;;;110347;1252;53559;-65
2023/02/05 09:16:25;;;;;;;;;11.50;10.50;25.90;36.90;;;;;;110221;1248;49232;-65
2023/02/05 09:18:56;;;;;;;;;14.33;13.00;25.90;36.80;;;;;;110619;1249;48863;-64
2023/02/05 09:21:24;;;;;;;;;15.67;12.67;25.80;37.00;;;;;;110332;1251;44826;-65
2023/02/05 09:23:52;;;;;;;;;12.33;11.00;25.80;36.90;;;;;;110307;1252;54066;-64
2023/02/05 09:26:20;;;;;;;;;15.00;14.00;25.80;36.60;;;;;;110190;1248;54816;-64
2023/02/05 09:28:47;;;;;;;;;12.00;11.00;25.80;36.40;;;;;;110588;1252;49769;-63
2023/02/05 09:31:16;;;;;;;;;11.33;10.33;25.70;36.30;;;;;;110098;1250;49692;-68
2023/02/05 09:33:44;;;;;;;;;14.33;12.00;25.70;36.20;;;;;;110354;1252;44835;-66
2023/02/05 09:36:17;;;;;;;;;11.50;10.00;25.70;36.10;;;;;;110398;1252;55575;-65
2023/02/05 09:38:45;;;;;;;;;15.00;12.67;25.60;35.70;;;;;;110640;1247;54012;-64
2023/02/05 09:41:11;;;;;;;;;14.00;11.00;25.70;35.80;;;;;;110302;1249;51110;-63
2023/02/05 09:43:59;;;;;;;;;15.00;12.00;25.70;35.90;;;;;;110306;1252;49651;-66
2023/02/05 09:46:38;;;;;;;;;13.25;11.75;25.80;36.00;;;;;;110357;1252;45350;-66
2023/02/05 09:49:18;;;;;;;;;14.00;12.00;25.90;36.00;;;;;;110644;1252;55424;-65
2023/02/05 09:51:54;;;;;;;;;16.33;13.67;25.90;35.90;;;;;;110331;1252;53754;-65
2023/02/05 09:54:27;;;;;;;;;13.00;10.00;26.00;35.80;;;;;;110267;1249;49887;-66
2023/02/05 09:56:59;;;;;;;;;13.00;12.00;26.10;35.80;;;;;;110244;1254;49427;-66
2023/02/05 09:59:28;;;;;;;;;14.50;11.00;26.20;36.10;;;;;;110587;1252;44510;-67
2023/02/05 10:02:00;;;;;;;;;12.00;10.00;26.30;36.10;;;;;;110294;1249;54868;-65
2023/02/05 10:04:27;;;;;;;;;15.67;14.33;26.40;35.70;;;;;;110225;1249;53302;-65
2023/02/05 10:07:11;;;;;;;;;15.25;10.00;26.50;35.70;;;;;;110320;1248;50296;-65
2023/02/05 10:09:59;;;;;;;;;13.00;11.00;26.60;36.10;;;;;;110249;1249;49949;-65
2023/02/05 10:12:54;;;;;;;;;13.00;11.50;26.70;36.10;;;;;;110417;1249;45098;-68
2023/02/05 10:15:28;;;;;;;;;13.00;11.00;26.90;36.10;;;;;;110428;1252;55411;-69
2023/02/05 10:18:07;;;;;;;;;12.00;11.00;27.00;36.00;;;;;;110282;1248;53885;-66
2023/02/05 10:21:05;;;;;;;;;11.00;9.00;27.10;35.60;;;;;;110366;1248;49666;-66
2023/02/05 10:23:41;;;;;;;;;12.33;11.00;27.30;35.80;;;;;;110337;1248;49860;-67
2023/02/05 10:26:13;;;;;;;;;11.00;9.67;27.40;36.20;;;;;;110301;1252;44735;-67
2023/02/05 10:28:55;;;;;;;;;14.67;13.00;27.50;36.70;;;;;;110532;1249;54089;-66
2023/02/05 10:31:41;;;;;;;;;15.00;10.00;27.60;36.50;;;;;;110270;1249;54016;-66
2023/02/05 10:34:33;;;;;;;;;14.00;11.50;27.70;36.70;;;;;;110335;1252;51026;-67
2023/02/05 10:37:02;;;;;;;;;15.00;12.00;27.70;36.50;;;;;;110439;1250;48827;-66
2023/02/05 10:39:29;;;;;;;;;13.00;11.00;27.80;36.50;;;;;;110621;1252;45185;-65
2023/02/05 10:42:22;;;;;;;;;13.00;11.00;27.80;36.40;;;;;;110302;1250;54722;-66
2023/02/05 10:45:13;;;;;;;;;15.25;11.75;27.90;36.40;;;;;;110295;1250;53251;-65
2023/02/05 10:48:02;;;;;;;;;12.00;10.00;28.00;36.10;;;;;;110180;1252;49973;-64
2023/02/05 10:50:50;;;;;;;;;11.00;9.00;28.00;35.80;;;;;;110172;1253;49720;-67
2023/02/05 10:53:20;;;;;;;;;10.00;9.00;28.10;36.00;;;;;;110290;1248;45533;-65
2023/02/05 10:55:47;;;;;;;;;12.50;9.50;28.10;35.70;;;;;;110460;1248;55402;-66
2023/02/05 10:58:39;;;;;;;;;10.00;9.00;28.10;35.70;;;;;;110678;1252;53716;-66
2023/02/05 11:01:23;;;;;;;;;12.50;11.00;28.10;35.60;;;;;;110322;1249;49635;-65
2023/02/05 11:04:04;;;;;;;;;16.00;12.00;28.20;35.60;;;;;;110311;1252;48820;-68
2023/02/05 11:06:38;;;;;;;;;11.00;10.00;28.10;35.80;;;;;;110287;1249;44717;-68
2023/02/05 11:09:38;;;;;;;;;15.50;11.00;28.10;35.50;;;;;;110581;1249;54860;-67
2023/02/05 11:12:27;;;;;;;;;13.00;12.00;28.10;35.50;;;;;;110095;1249;54557;-68
2023/02/05 11:14:57;;;;;;;;;11.00;9.00;28.10;35.50;;;;;;110285;1249;49814;-67
2023/02/05 11:17:36;;;;;;;;;16.00;11.50;28.10;35.40;;;;;;110437;1252;50114;-68
2023/02/05 11:20:25;;;;;;;;;14.00;11.00;28.10;35.40;;;;;;110479;1254;45774;-67
2023/02/05 11:23:05;;;;;;;;;11.00;9.00;28.10;35.40;;;;;;110350;1252;54921;-67
2023/02/05 11:25:32;;;;;;;;;15.33;9.00;28.10;35.50;;;;;;110342;1252;53385;-67
2023/02/05 11:28:04;;;;;;;;;11.00;10.00;28.10;35.20;;;;;;110433;1249;49861;-67
2023/02/05 11:30:34;;;;;;;;;11.00;10.00;28.00;35.20;;;;;;110322;1251;49537;-68
2023/02/05 11:33:24;;;;;;;;;13.67;10.00;27.90;35.10;;;;;;110347;1248;44438;-68
2023/02/05 11:35:57;;;;;;;;;10.75;9.00;27.90;35.40;;;;;;110336;1252;55035;-67
2023/02/05 11:38:42;;;;;;;;;10.00;9.00;27.90;35.40;;;;;;110565;1248;53300;-67
2023/02/05 11:41:24;;;;;;;;;12.00;9.00;27.80;35.40;;;;;;110287;1251;49899;-67
2023/02/05 11:43:51;;;;;;;;;12.00;10.00;27.80;35.50;;;;;;110309;1247;48592;-68
2023/02/05 11:46:22;;;;;;;;;12.00;8.00;27.80;35.60;;;;;;110286;1253;45150;-68
2023/02/05 11:48:52;;;;;;;;;10.00;9.00;27.80;35.80;;;;;;110642;1248;54411;-67
2023/02/05 11:51:44;;;;;;;;;10.00;9.00;27.70;35.80;;;;;;110492;1252;54401;-66
2023/02/05 11:54:19;;;;;;;;;9.00;8.00;27.80;36.10;;;;;;110469;1253;49872;-68
2023/02/05 11:57:20;;;;;;;;;13.00;10.00;27.80;36.20;;;;;;110424;1249;48729;-66
2023/02/05 11:59:54;;;;;;;;;14.00;9.00;27.90;36.40;;;;;;110696;1252;45317;-66
2023/02/05 12:02:24;;;;;;;;;13.67;10.33;28.00;37.00;;;;;;110384;1252;54441;-66
2023/02/05 12:05:00;;;;;;;;;11.00;10.00;28.20;36.70;;;;;;110474;1248;53397;-67
2023/02/05 12:07:30;;;;;;;;;10.00;8.00;28.30;36.80;;;;;;110411;1252;49756;-67
2023/02/05 12:09:58;;;;;;;;;13.00;9.00;28.40;36.70;;;;;;110273;1248;48995;-67
2023/02/05 12:12:45;;;;;;;;;9.00;7.25;28.60;36.90;;;;;;110419;1249;45146;-67
2023/02/05 12:15:23;;;;;;;;;10.00;8.00;28.70;36.70;;;;;;110420;1248;54545;-65
2023/02/05 12:17:58;;;;;;;;;10.00;8.00;28.90;36.80;;;;;;110391;1252;54741;-65
2023/02/05 12:20:33;;;;;;;;;12.00;9.00;29.00;36.70;;;;;;110503;1253;50084;-64
2023/02/05 12:23:22;;;;;;;;;11.00;9.50;29.20;37.10;;;;;;110518;1252;49351;-66
2023/02/05 12:26:02;;;;;;;;;9.75;8.00;29.30;37.00;;;;;;110413;1249;44918;-65
2023/02/05 12:28:35;;;;;;;;;12.33;11.00;29.50;37.00;;;;;;110804;1252;55468;-66
2023/02/05 12:31:14;;;;;;;;;13.50;12.00;29.60;36.60;;;;;;110200;1251;54182;-67
2023/02/05 12:34:05;;;;;;;;;13.67;12.67;29.70;34.50;;;;;;110242;1252;49355;-68
2023/02/05 12:36:51;;;;;;;;;15.00;12.00;29.80;33.70;;;;;;110309;1249;49712;-67
2023/02/05 12:39:25;;;;;;;;;11.00;9.00;29.80;33.80;;;;;;110076;1252;44632;-66
2023/02/05 12:42:06;;;;;;;;;16.00;13.00;29.80;33.50;;;;;;110368;1249;54500;-68
2023/02/05 12:44:51;;;;;;;;;13.00;10.67;29.80;33.40;;;;;;110511;1252;54130;-68
2023/02/05 12:47:44;;;;;;;;;19.00;14.00;29.80;33.60;;;;;;110311;1252;50047;-66
2023/02/05 12:50:43;;;;;;;;;15.00;13.00;29.80;33.50;;;;;;110059;1252;50118;-65